createdAt,value
2023-03-21T00:01:59.844Z,8.45
2023-03-21T00:06:52.670Z,8.40
2023-03-21T00:11:45.768Z,8.36
2023-03-21T00:16:39.599Z,8.37
2023-03-21T00:26:46.924Z,8.41
2023-03-21T00:31:39.743Z,8.38
2023-03-21T00:36:32.923Z,8.35
2023-03-21T00:41:41.138Z,8.33
2023-03-21T00:46:45.596Z,8.30
2023-03-21T00:51:44.642Z,8.30
2023-03-21T00:56:38.341Z,8.29
2023-03-21T01:01:32.412Z,8.30
2023-03-21T01:06:27.449Z,8.29
2023-03-21T01:11:24.825Z,8.26
2023-03-21T01:16:17.805Z,8.28
2023-03-21T01:21:13.905Z,8.29
2023-03-21T01:26:11.589Z,8.30
2023-03-21T01:31:06.265Z,8.30
2023-03-21T01:36:10.282Z,8.30
2023-03-21T01:41:17.111Z,8.27
2023-03-21T01:46:51.402Z,8.26
2023-03-21T01:52:21.029Z,8.24
2023-03-21T01:57:40.983Z,8.21
2023-03-21T02:02:38.089Z,8.20
2023-03-21T02:07:44.063Z,8.17
2023-03-21T02:12:41.184Z,8.14
2023-03-21T02:17:37.431Z,8.12
2023-03-21T02:22:49.581Z,8.09
2023-03-21T02:28:08.452Z,8.06
2023-03-21T02:33:33.226Z,8.05
2023-03-21T02:38:33.221Z,7.99
2023-03-21T02:43:52.053Z,7.95
2023-03-21T02:48:58.095Z,7.90
2023-03-21T02:54:23.710Z,7.89
2023-03-21T02:59:11.856Z,7.89
2023-03-21T03:04:05.426Z,7.91
2023-03-21T03:09:25.577Z,7.93
2023-03-21T03:15:00.329Z,7.95
2023-03-21T03:20:18.866Z,7.95
2023-03-21T03:25:29.818Z,7.96
2023-03-21T03:30:42.251Z,7.96
2023-03-21T03:35:40.712Z,7.96
2023-03-21T03:40:49.751Z,7.95
2023-03-21T03:46:13.207Z,7.95
2023-03-21T03:51:18.486Z,7.95
2023-03-21T03:56:31.008Z,7.95
2023-03-21T04:01:24.390Z,7.93
2023-03-21T04:06:18.217Z,7.91
2023-03-21T04:11:14.396Z,7.92
2023-03-21T04:16:13.168Z,7.94
2023-03-21T04:21:12.962Z,7.93
2023-03-21T04:26:07.298Z,7.94
2023-03-21T04:31:08.889Z,7.94
2023-03-21T04:36:26.543Z,7.93
2023-03-21T04:41:22.228Z,7.92
2023-03-21T04:46:15.925Z,7.91
2023-03-21T04:51:08.968Z,7.89
2023-03-21T04:56:02.037Z,7.88
2023-03-21T05:00:55.180Z,7.87
2023-03-21T05:05:48.890Z,7.86
2023-03-21T05:10:42.257Z,7.86
2023-03-21T05:15:35.484Z,7.88
2023-03-21T05:20:28.425Z,7.91
2023-03-21T05:25:34.189Z,7.92
2023-03-21T05:30:34.982Z,7.96
2023-03-21T05:35:28.861Z,8.02
2023-03-21T05:40:23.908Z,8.08
2023-03-21T05:45:17.317Z,8.12
2023-03-21T05:50:11.572Z,8.16
2023-03-21T05:55:07.126Z,8.19
2023-03-21T06:00:00.164Z,8.18
2023-03-21T06:04:53.492Z,8.15
2023-03-21T06:09:47.337Z,8.14
2023-03-21T06:14:40.249Z,8.13
2023-03-21T06:20:01.393Z,8.16
2023-03-21T06:24:57.500Z,8.19
2023-03-21T06:29:50.493Z,8.18
2023-03-21T06:34:44.129Z,8.18
2023-03-21T06:39:40.339Z,8.21
2023-03-21T06:44:34.443Z,8.24
2023-03-21T06:49:31.603Z,8.26
2023-03-21T06:54:27.716Z,8.33
2023-03-21T06:59:26.776Z,8.47
2023-03-21T07:04:32.410Z,8.54
2023-03-21T07:09:28.186Z,8.63
2023-03-21T07:14:23.996Z,8.73
2023-03-21T07:19:16.950Z,8.74
2023-03-21T07:24:09.994Z,8.75
2023-03-21T07:29:02.805Z,8.75
2023-03-21T07:33:55.739Z,8.78
2023-03-21T07:38:48.845Z,8.82
2023-03-21T07:43:46.325Z,8.81
2023-03-21T07:48:39.250Z,8.76
2023-03-21T07:53:32.448Z,8.87
2023-03-21T07:58:27.374Z,9.10
2023-03-21T08:03:21.401Z,9.35
2023-03-21T08:08:14.353Z,9.49
2023-03-21T08:13:07.167Z,9.55
2023-03-21T08:18:01.349Z,9.76
2023-03-21T08:22:54.147Z,9.95
2023-03-21T08:27:48.361Z,10.16
2023-03-21T08:32:42.915Z,10.32
2023-03-21T08:37:36.070Z,10.28
2023-03-21T08:42:28.918Z,10.28
2023-03-21T08:47:22.331Z,10.25
2023-03-21T08:52:15.162Z,10.17
2023-03-21T08:57:08.685Z,10.21
2023-03-21T09:02:01.567Z,10.71
2023-03-21T09:06:56.388Z,12.13
2023-03-21T09:11:50.536Z,12.69
2023-03-21T09:16:45.001Z,12.32
2023-03-21T09:21:38.354Z,12.26
2023-03-21T09:26:31.268Z,11.99
2023-03-21T09:31:25.052Z,11.60
2023-03-21T09:36:19.327Z,11.29
2023-03-21T09:41:33.831Z,11.14
2023-03-21T09:46:41.114Z,11.10
2023-03-21T09:51:38.309Z,11.02
2023-03-21T09:56:31.422Z,10.83
2023-03-21T10:01:30.191Z,10.70
2023-03-21T10:06:28.897Z,10.59
2023-03-21T10:11:28.582Z,10.57
2023-03-21T10:16:30.518Z,10.52
2023-03-21T10:21:56.495Z,10.46
2023-03-21T10:26:39.701Z,10.45
2023-03-21T10:31:33.216Z,10.47
2023-03-21T10:36:30.762Z,10.44
2023-03-21T10:41:23.662Z,10.29
2023-03-21T10:46:24.231Z,10.26
2023-03-21T10:51:22.160Z,10.37
2023-03-21T10:56:15.015Z,10.53
2023-03-21T11:01:15.195Z,10.54
2023-03-21T11:06:13.697Z,10.39
2023-03-21T11:11:10.144Z,10.14
2023-03-21T11:16:09.317Z,9.99
2023-03-21T11:21:08.227Z,9.97
2023-03-21T11:26:03.814Z,9.96
2023-03-21T11:31:02.793Z,9.99
2023-03-21T11:36:26.412Z,10.10
2023-03-21T11:41:35.733Z,10.57
2023-03-21T11:46:33.904Z,11.46
2023-03-21T11:51:38.521Z,12.29
2023-03-21T11:56:39.309Z,13.17
2023-03-21T12:02:06.644Z,13.40
2023-03-21T12:07:18.435Z,13.65
2023-03-21T12:12:39.254Z,13.73
2023-03-21T12:18:10.960Z,13.58
2023-03-21T12:23:09.712Z,13.33
2023-03-21T12:28:32.396Z,13.28
2023-03-21T12:33:26.101Z,12.97
2023-03-21T12:38:28.789Z,12.51
2023-03-21T12:43:51.530Z,12.22
2023-03-21T12:48:47.740Z,12.16
2023-03-21T12:54:00.759Z,12.36
2023-03-21T12:59:05.995Z,12.51
2023-03-21T13:04:37.936Z,12.42
2023-03-21T13:09:40.138Z,12.24
2023-03-21T13:14:40.413Z,12.02
2023-03-21T13:19:48.721Z,11.85
2023-03-21T13:24:49.383Z,11.76
2023-03-21T13:29:42.162Z,11.78
2023-03-21T13:34:35.308Z,11.88
2023-03-21T13:39:31.234Z,11.99
2023-03-21T13:44:37.435Z,12.13
2023-03-21T13:49:33.587Z,12.12
2023-03-21T13:54:48.322Z,11.91
2023-03-21T13:59:46.208Z,11.70
2023-03-21T14:04:42.533Z,11.65
2023-03-21T14:09:50.545Z,11.79
2023-03-21T14:14:48.647Z,11.78
2023-03-21T14:19:41.466Z,11.83
2023-03-21T14:24:34.422Z,11.75
2023-03-21T14:29:32.912Z,11.60
2023-03-21T14:34:28.488Z,11.46
2023-03-21T14:39:28.856Z,11.37
2023-03-21T14:44:30.264Z,11.26
2023-03-21T14:49:30.445Z,11.20
2023-03-21T14:54:24.936Z,11.16
2023-03-21T14:59:22.662Z,11.28
2023-03-21T15:04:17.878Z,11.71
2023-03-21T15:09:17.254Z,12.03
2023-03-21T15:14:14.958Z,12.07
2023-03-21T15:19:11.813Z,11.79
2023-03-21T15:24:32.286Z,11.34
2023-03-21T15:29:27.414Z,10.98
2023-03-21T15:34:27.607Z,10.87
2023-03-21T15:39:21.901Z,10.77
2023-03-21T15:44:17.779Z,10.50
2023-03-21T15:49:14.971Z,10.22
2023-03-21T15:54:15.263Z,9.93
2023-03-21T15:59:14.696Z,9.73
2023-03-21T16:04:13.463Z,9.58
2023-03-21T16:09:14.436Z,9.42
2023-03-21T16:14:07.287Z,9.21
2023-03-21T16:19:02.055Z,9.02
2023-03-21T16:23:56.265Z,8.78
2023-03-21T16:28:49.949Z,8.59
2023-03-21T16:33:42.971Z,8.39
2023-03-21T16:38:35.844Z,8.18
2023-03-21T16:43:28.639Z,7.97
2023-03-21T16:48:21.549Z,7.78
2023-03-21T16:53:14.402Z,7.57
2023-03-21T16:58:07.625Z,7.40
2023-03-21T17:03:14.345Z,7.22
2023-03-21T17:08:07.401Z,7.04
2023-03-21T17:13:01.087Z,6.86
2023-03-21T17:17:55.873Z,6.67
2023-03-21T17:22:50.094Z,6.49
2023-03-21T17:27:44.035Z,6.29
2023-03-21T17:32:37.022Z,6.14
2023-03-21T17:37:29.808Z,5.98
2023-03-21T17:42:22.612Z,5.83
2023-03-21T17:47:16.466Z,5.72
2023-03-21T17:52:09.299Z,5.61
2023-03-21T17:57:02.124Z,5.51
2023-03-21T18:01:55.072Z,5.41
2023-03-21T18:06:47.992Z,5.28
2023-03-21T18:11:41.489Z,5.20
2023-03-21T18:16:34.606Z,5.12
2023-03-21T18:21:32.207Z,5.01
2023-03-21T18:26:26.023Z,4.88
2023-03-21T18:31:21.409Z,4.76
2023-03-21T18:36:24.838Z,4.64
2023-03-21T18:41:19.911Z,4.52
2023-03-21T18:46:13.446Z,4.42
2023-03-21T18:51:06.351Z,4.32
2023-03-21T18:55:59.202Z,4.22
2023-03-21T19:00:53.822Z,4.10
2023-03-21T19:05:47.204Z,3.99
2023-03-21T19:10:40.246Z,3.88
2023-03-21T19:15:33.306Z,3.77
2023-03-21T19:20:26.230Z,3.70
2023-03-21T19:25:19.442Z,3.64
2023-03-21T19:30:15.627Z,3.57
2023-03-21T19:35:09.418Z,3.45
2023-03-21T19:40:02.195Z,3.40
2023-03-21T19:44:55.007Z,3.32
2023-03-21T19:50:37.306Z,3.26
2023-03-21T19:55:00.762Z,3.16
2023-03-21T19:59:55.026Z,3.08
2023-03-21T20:04:48.011Z,2.97
2023-03-21T20:09:51.943Z,2.91
2023-03-21T20:14:48.502Z,2.82
2023-03-21T20:19:42.076Z,2.73
2023-03-21T20:24:36.412Z,2.63
2023-03-21T20:34:44.473Z,2.49
2023-03-21T20:39:37.941Z,2.42
2023-03-21T20:49:44.326Z,2.25
2023-03-21T20:54:37.482Z,2.19
2023-03-21T20:59:30.304Z,2.13
2023-03-21T21:04:41.200Z,2.05
2023-03-21T21:09:36.226Z,1.99
2023-03-21T21:14:29.821Z,1.94
2023-03-21T21:19:23.103Z,1.89
2023-03-21T21:24:16.017Z,1.89
2023-03-21T21:29:08.884Z,1.90
2023-03-21T21:34:03.243Z,1.90
2023-03-21T21:38:56.463Z,1.79
2023-03-21T21:43:49.517Z,1.67
2023-03-21T21:48:43.132Z,1.59
2023-03-21T21:53:36.727Z,1.52
2023-03-21T21:58:33.860Z,1.47
2023-03-21T22:03:26.878Z,1.41
2023-03-21T22:08:20.887Z,1.34
2023-03-21T22:13:16.829Z,1.31
2023-03-21T22:18:11.446Z,1.26
2023-03-21T22:23:04.242Z,1.17
2023-03-21T22:27:57.840Z,1.10
2023-03-21T22:33:06.172Z,1.07
2023-03-21T22:37:59.299Z,1.01
2023-03-21T22:42:52.196Z,0.96
2023-03-21T22:47:45.448Z,0.90
2023-03-21T22:52:38.271Z,0.83
2023-03-21T22:57:31.217Z,0.79
2023-03-21T23:02:24.083Z,0.75
2023-03-21T23:07:17.025Z,0.71
2023-03-21T23:12:09.916Z,0.66
2023-03-21T23:17:02.858Z,0.65
2023-03-21T23:21:56.871Z,0.65
2023-03-21T23:26:49.709Z,0.62
2023-03-21T23:31:42.515Z,0.62
2023-03-21T23:36:35.454Z,0.61
2023-03-21T23:41:28.394Z,0.55
2023-03-21T23:46:21.819Z,0.55
2023-03-21T23:51:17.455Z,0.59
2023-03-21T23:56:19.210Z,0.59
